sensor_id;sensor_type;location;lat;lon;timestamp;P1;durP1;ratioP1;P2;durP2;ratioP2
50631;SDS011;49583;45.590;-122.498;2024-02-04T00:00:45;0.90;;;0.50;;
50631;SDS011;49583;45.590;-122.498;2024-02-04T00:03:21;2.80;;;0.80;;
50631;SDS011;49583;45.590;-122.498;2024-02-04T00:05:33;0.80;;;0.60;;
50631;SDS011;49583;45.590;-122.498;2024-02-04T00:07:46;1.10;;;0.60;;
50631;SDS011;49583;45.590;-122.498;2024-02-04T00:09:59;1.10;;;0.80;;
50631;SDS011;49583;45.590;-122.498;2024-02-04T00:12:16;3.20;;;0.60;;
50631;SDS011;49583;45.590;-122.498;2024-02-04T00:14:32;2.30;;;0.60;;
50631;SDS011;49583;45.590;-122.498;2024-02-04T00:16:46;1.70;;;0.80;;
50631;SDS011;49583;45.590;-122.498;2024-02-04T00:19:02;0.90;;;0.60;;
50631;SDS011;49583;45.590;-122.498;2024-02-04T00:21:17;1.10;;;0.60;;
50631;SDS011;49583;45.590;-122.498;2024-02-04T00:23:49;1.20;;;0.70;;
50631;SDS011;49583;45.590;-122.498;2024-02-04T00:26:02;1.80;;;0.70;;
50631;SDS011;49583;45.590;-122.498;2024-02-04T00:28:18;1.20;;;0.90;;
50631;SDS011;49583;45.590;-122.498;2024-02-04T00:30:30;1.00;;;0.70;;
50631;SDS011;49583;45.590;-122.498;2024-02-04T00:32:43;0.90;;;0.60;;
50631;SDS011;49583;45.590;-122.498;2024-02-04T00:34:56;0.60;;;0.60;;
50631;SDS011;49583;45.590;-122.498;2024-02-04T00:37:09;0.90;;;0.60;;
50631;SDS011;49583;45.590;-122.498;2024-02-04T00:39:21;1.90;;;0.60;;
50631;SDS011;49583;45.590;-122.498;2024-02-04T00:41:34;2.30;;;0.90;;
50631;SDS011;49583;45.590;-122.498;2024-02-04T00:43:50;5.50;;;0.80;;
50631;SDS011;49583;45.590;-122.498;2024-02-04T00:46:03;3.10;;;0.80;;
50631;SDS011;49583;45.590;-122.498;2024-02-04T00:48:17;2.30;;;0.90;;
50631;SDS011;49583;45.590;-122.498;2024-02-04T00:50:31;3.80;;;0.90;;
50631;SDS011;49583;45.590;-122.498;2024-02-04T00:52:44;1.20;;;0.80;;
50631;SDS011;49583;45.590;-122.498;2024-02-04T00:54:57;4.30;;;1.20;;
50631;SDS011;49583;45.590;-122.498;2024-02-04T00:57:10;2.10;;;1.10;;
50631;SDS011;49583;45.590;-122.498;2024-02-04T00:59:25;2.10;;;0.90;;
50631;SDS011;49583;45.590;-122.498;2024-02-04T01:01:38;1.40;;;0.90;;
50631;SDS011;49583;45.590;-122.498;2024-02-04T01:03:52;5.40;;;1.40;;
50631;SDS011;49583;45.590;-122.498;2024-02-04T01:06:05;5.20;;;1.20;;
50631;SDS011;49583;45.590;-122.498;2024-02-04T01:08:21;3.50;;;0.70;;
50631;SDS011;49583;45.590;-122.498;2024-02-04T01:10:37;2.40;;;0.80;;
50631;SDS011;49583;45.590;-122.498;2024-02-04T01:15:10;1.60;;;0.90;;
50631;SDS011;49583;45.590;-122.498;2024-02-04T01:17:25;3.20;;;1.10;;
50631;SDS011;49583;45.590;-122.498;2024-02-04T01:19:38;3.40;;;1.20;;
50631;SDS011;49583;45.590;-122.498;2024-02-04T01:21:51;6.60;;;1.30;;
50631;SDS011;49583;45.590;-122.498;2024-02-04T01:24:07;6.90;;;1.90;;
50631;SDS011;49583;45.590;-122.498;2024-02-04T01:26:39;4.60;;;1.70;;
50631;SDS011;49583;45.590;-122.498;2024-02-04T01:28:52;4.50;;;2.30;;
50631;SDS011;49583;45.590;-122.498;2024-02-04T01:31:05;5.90;;;2.70;;
50631;SDS011;49583;45.590;-122.498;2024-02-04T01:33:18;11.80;;;3.60;;
50631;SDS011;49583;45.590;-122.498;2024-02-04T01:35:31;10.40;;;5.70;;
50631;SDS011;49583;45.590;-122.498;2024-02-04T01:37:43;5.50;;;3.80;;
50631;SDS011;49583;45.590;-122.498;2024-02-04T01:39:58;5.30;;;3.10;;
50631;SDS011;49583;45.590;-122.498;2024-02-04T01:42:11;8.40;;;2.70;;
50631;SDS011;49583;45.590;-122.498;2024-02-04T01:44:33;7.10;;;2.60;;
50631;SDS011;49583;45.590;-122.498;2024-02-04T01:46:45;8.70;;;2.50;;
50631;SDS011;49583;45.590;-122.498;2024-02-04T01:48:58;4.30;;;2.30;;
50631;SDS011;49583;45.590;-122.498;2024-02-04T01:51:12;3.80;;;2.30;;
50631;SDS011;49583;45.590;-122.498;2024-02-04T01:53:30;3.90;;;2.10;;
50631;SDS011;49583;45.590;-122.498;2024-02-04T01:55:46;3.70;;;1.80;;
50631;SDS011;49583;45.590;-122.498;2024-02-04T01:58:00;3.90;;;2.40;;
50631;SDS011;49583;45.590;-122.498;2024-02-04T02:00:14;7.00;;;2.70;;
50631;SDS011;49583;45.590;-122.498;2024-02-04T02:02:27;5.20;;;2.20;;
50631;SDS011;49583;45.590;-122.498;2024-02-04T02:04:41;9.90;;;2.80;;
50631;SDS011;49583;45.590;-122.498;2024-02-04T02:06:56;4.40;;;3.70;;
50631;SDS011;49583;45.590;-122.498;2024-02-04T02:09:13;5.70;;;3.30;;
50631;SDS011;49583;45.590;-122.498;2024-02-04T02:11:27;7.40;;;3.80;;
50631;SDS011;49583;45.590;-122.498;2024-02-04T02:13:52;4.90;;;3.60;;
50631;SDS011;49583;45.590;-122.498;2024-02-04T02:16:11;4.20;;;2.60;;
50631;SDS011;49583;45.590;-122.498;2024-02-04T02:18:29;3.00;;;2.20;;
50631;SDS011;49583;45.590;-122.498;2024-02-04T02:21:12;5.30;;;3.00;;
50631;SDS011;49583;45.590;-122.498;2024-02-04T02:23:43;4.60;;;1.90;;
50631;SDS011;49583;45.590;-122.498;2024-02-04T02:26:04;6.00;;;2.20;;
50631;SDS011;49583;45.590;-122.498;2024-02-04T02:28:19;5.10;;;2.30;;
50631;SDS011;49583;45.590;-122.498;2024-02-04T02:30:31;8.20;;;2.60;;
50631;SDS011;49583;45.590;-122.498;2024-02-04T02:32:53;6.80;;;2.80;;
50631;SDS011;49583;45.590;-122.498;2024-02-04T02:35:07;3.60;;;2.80;;
50631;SDS011;49583;45.590;-122.498;2024-02-04T02:37:23;8.70;;;5.10;;
50631;SDS011;49583;45.590;-122.498;2024-02-04T02:40:06;9.80;;;5.20;;
50631;SDS011;49583;45.590;-122.498;2024-02-04T02:42:23;7.00;;;4.30;;
50631;SDS011;49583;45.590;-122.498;2024-02-04T02:44:38;6.00;;;4.00;;
50631;SDS011;49583;45.590;-122.498;2024-02-04T02:46:54;6.60;;;3.20;;
50631;SDS011;49583;45.590;-122.498;2024-02-04T02:49:07;6.80;;;3.40;;
50631;SDS011;49583;45.590;-122.498;2024-02-04T02:51:21;6.20;;;3.80;;
50631;SDS011;49583;45.590;-122.498;2024-02-04T02:53:35;8.10;;;5.20;;
50631;SDS011;49583;45.590;-122.498;2024-02-04T02:55:48;4.80;;;4.20;;
50631;SDS011;49583;45.590;-122.498;2024-02-04T02:58:01;7.00;;;3.70;;
50631;SDS011;49583;45.590;-122.498;2024-02-04T03:00:16;8.00;;;4.30;;
50631;SDS011;49583;45.590;-122.498;2024-02-04T03:02:29;6.60;;;4.50;;
50631;SDS011;49583;45.590;-122.498;2024-02-04T03:04:42;7.30;;;4.10;;
50631;SDS011;49583;45.590;-122.498;2024-02-04T03:06:55;5.60;;;3.80;;
50631;SDS011;49583;45.590;-122.498;2024-02-04T03:09:18;4.80;;;3.20;;
50631;SDS011;49583;45.590;-122.498;2024-02-04T03:11:31;5.00;;;3.80;;
50631;SDS011;49583;45.590;-122.498;2024-02-04T03:13:45;9.40;;;4.10;;
50631;SDS011;49583;45.590;-122.498;2024-02-04T03:15:57;7.50;;;4.80;;
50631;SDS011;49583;45.590;-122.498;2024-02-04T03:18:10;9.50;;;6.00;;
50631;SDS011;49583;45.590;-122.498;2024-02-04T03:20:24;9.90;;;6.00;;
50631;SDS011;49583;45.590;-122.498;2024-02-04T03:22:37;10.00;;;7.20;;
50631;SDS011;49583;45.590;-122.498;2024-02-04T03:24:50;16.60;;;7.20;;
50631;SDS011;49583;45.590;-122.498;2024-02-04T03:27:15;11.30;;;7.20;;
50631;SDS011;49583;45.590;-122.498;2024-02-04T03:29:31;14.80;;;7.40;;
50631;SDS011;49583;45.590;-122.498;2024-02-04T03:31:44;7.70;;;5.10;;
50631;SDS011;49583;45.590;-122.498;2024-02-04T03:34:08;7.10;;;4.00;;
50631;SDS011;49583;45.590;-122.498;2024-02-04T03:36:22;5.40;;;4.90;;
50631;SDS011;49583;45.590;-122.498;2024-02-04T03:38:35;6.20;;;4.30;;
50631;SDS011;49583;45.590;-122.498;2024-02-04T03:40:53;6.10;;;3.70;;
50631;SDS011;49583;45.590;-122.498;2024-02-04T03:43:07;5.90;;;4.50;;
50631;SDS011;49583;45.590;-122.498;2024-02-04T03:45:20;9.20;;;4.80;;
50631;SDS011;49583;45.590;-122.498;2024-02-04T03:47:35;7.50;;;5.30;;
50631;SDS011;49583;45.590;-122.498;2024-02-04T03:49:48;14.70;;;6.20;;
50631;SDS011;49583;45.590;-122.498;2024-02-04T03:52:01;9.50;;;4.70;;
50631;SDS011;49583;45.590;-122.498;2024-02-04T03:54:14;9.70;;;4.30;;
50631;SDS011;49583;45.590;-122.498;2024-02-04T03:56:27;12.40;;;4.70;;
50631;SDS011;49583;45.590;-122.498;2024-02-04T03:58:40;7.40;;;4.90;;
50631;SDS011;49583;45.590;-122.498;2024-02-04T04:01:04;10.50;;;5.50;;
50631;SDS011;49583;45.590;-122.498;2024-02-04T04:03:20;12.50;;;7.00;;
50631;SDS011;49583;45.590;-122.498;2024-02-04T04:05:43;8.00;;;5.70;;
50631;SDS011;49583;45.590;-122.498;2024-02-04T04:07:56;7.30;;;5.00;;
50631;SDS011;49583;45.590;-122.498;2024-02-04T04:10:09;10.60;;;5.10;;
50631;SDS011;49583;45.590;-122.498;2024-02-04T04:12:24;10.40;;;4.00;;
50631;SDS011;49583;45.590;-122.498;2024-02-04T04:14:37;7.60;;;4.20;;
50631;SDS011;49583;45.590;-122.498;2024-02-04T04:17:11;6.20;;;4.30;;
50631;SDS011;49583;45.590;-122.498;2024-02-04T04:19:24;6.80;;;5.00;;
50631;SDS011;49583;45.590;-122.498;2024-02-04T04:21:37;10.00;;;4.70;;
50631;SDS011;49583;45.590;-122.498;2024-02-04T04:23:50;10.30;;;5.50;;
50631;SDS011;49583;45.590;-122.498;2024-02-04T04:26:04;14.50;;;6.50;;
50631;SDS011;49583;45.590;-122.498;2024-02-04T04:28:17;8.30;;;5.60;;
50631;SDS011;49583;45.590;-122.498;2024-02-04T04:30:33;9.00;;;5.40;;
50631;SDS011;49583;45.590;-122.498;2024-02-04T04:32:47;6.50;;;5.10;;
50631;SDS011;49583;45.590;-122.498;2024-02-04T04:35:00;9.10;;;5.30;;
50631;SDS011;49583;45.590;-122.498;2024-02-04T04:37:13;5.90;;;4.40;;
50631;SDS011;49583;45.590;-122.498;2024-02-04T04:39:27;9.20;;;4.90;;
50631;SDS011;49583;45.590;-122.498;2024-02-04T04:41:43;15.10;;;5.60;;
50631;SDS011;49583;45.590;-122.498;2024-02-04T04:43:57;11.70;;;5.30;;
50631;SDS011;49583;45.590;-122.498;2024-02-04T04:46:10;8.80;;;4.90;;
50631;SDS011;49583;45.590;-122.498;2024-02-04T04:48:26;9.20;;;5.30;;
50631;SDS011;49583;45.590;-122.498;2024-02-04T04:50:59;15.70;;;4.90;;
50631;SDS011;49583;45.590;-122.498;2024-02-04T04:53:33;7.50;;;5.10;;
50631;SDS011;49583;45.590;-122.498;2024-02-04T04:55:46;6.50;;;4.50;;
50631;SDS011;49583;45.590;-122.498;2024-02-04T04:57:59;11.50;;;4.20;;
50631;SDS011;49583;45.590;-122.498;2024-02-04T05:00:14;6.90;;;3.60;;
50631;SDS011;49583;45.590;-122.498;2024-02-04T05:02:31;8.10;;;4.00;;
50631;SDS011;49583;45.590;-122.498;2024-02-04T05:04:45;7.70;;;3.60;;
50631;SDS011;49583;45.590;-122.498;2024-02-04T05:07:01;7.20;;;4.60;;
50631;SDS011;49583;45.590;-122.498;2024-02-04T05:09:24;6.00;;;3.90;;
50631;SDS011;49583;45.590;-122.498;2024-02-04T05:11:39;8.50;;;3.60;;
50631;SDS011;49583;45.590;-122.498;2024-02-04T05:13:55;6.60;;;3.90;;
50631;SDS011;49583;45.590;-122.498;2024-02-04T05:16:28;9.90;;;4.10;;
50631;SDS011;49583;45.590;-122.498;2024-02-04T05:18:41;6.60;;;3.70;;
50631;SDS011;49583;45.590;-122.498;2024-02-04T05:20:54;14.70;;;3.90;;
50631;SDS011;49583;45.590;-122.498;2024-02-04T05:23:10;10.40;;;3.70;;
50631;SDS011;49583;45.590;-122.498;2024-02-04T05:25:26;7.50;;;3.60;;
50631;SDS011;49583;45.590;-122.498;2024-02-04T05:27:40;5.90;;;4.50;;
50631;SDS011;49583;45.590;-122.498;2024-02-04T05:29:56;9.00;;;4.70;;
50631;SDS011;49583;45.590;-122.498;2024-02-04T05:32:09;9.20;;;3.70;;
50631;SDS011;49583;45.590;-122.498;2024-02-04T05:34:24;9.10;;;3.50;;
50631;SDS011;49583;45.590;-122.498;2024-02-04T05:36:38;4.70;;;3.70;;
50631;SDS011;49583;45.590;-122.498;2024-02-04T05:38:50;7.10;;;3.30;;
50631;SDS011;49583;45.590;-122.498;2024-02-04T05:41:04;5.60;;;3.50;;
50631;SDS011;49583;45.590;-122.498;2024-02-04T05:43:16;10.60;;;4.30;;
50631;SDS011;49583;45.590;-122.498;2024-02-04T05:45:29;5.70;;;3.90;;
50631;SDS011;49583;45.590;-122.498;2024-02-04T05:47:42;6.10;;;4.20;;
50631;SDS011;49583;45.590;-122.498;2024-02-04T05:49:56;6.70;;;3.90;;
50631;SDS011;49583;45.590;-122.498;2024-02-04T05:52:10;6.30;;;4.00;;
50631;SDS011;49583;45.590;-122.498;2024-02-04T05:54:24;5.40;;;4.20;;
50631;SDS011;49583;45.590;-122.498;2024-02-04T05:56:37;5.40;;;3.10;;
50631;SDS011;49583;45.590;-122.498;2024-02-04T05:58:50;7.90;;;4.60;;
50631;SDS011;49583;45.590;-122.498;2024-02-04T06:01:03;6.30;;;3.50;;
50631;SDS011;49583;45.590;-122.498;2024-02-04T06:03:16;5.90;;;3.70;;
50631;SDS011;49583;45.590;-122.498;2024-02-04T06:05:30;7.50;;;4.40;;
50631;SDS011;49583;45.590;-122.498;2024-02-04T06:07:48;5.30;;;3.60;;
50631;SDS011;49583;45.590;-122.498;2024-02-04T06:10:01;6.70;;;3.60;;
50631;SDS011;49583;45.590;-122.498;2024-02-04T06:12:28;6.70;;;3.90;;
50631;SDS011;49583;45.590;-122.498;2024-02-04T06:14:42;6.40;;;4.40;;
50631;SDS011;49583;45.590;-122.498;2024-02-04T06:17:15;5.70;;;4.40;;
50631;SDS011;49583;45.590;-122.498;2024-02-04T06:19:32;5.30;;;4.20;;
50631;SDS011;49583;45.590;-122.498;2024-02-04T06:21:45;7.60;;;4.70;;
50631;SDS011;49583;45.590;-122.498;2024-02-04T06:24:01;9.10;;;4.40;;
50631;SDS011;49583;45.590;-122.498;2024-02-04T06:26:14;7.00;;;4.40;;
50631;SDS011;49583;45.590;-122.498;2024-02-04T06:28:27;6.10;;;4.20;;
50631;SDS011;49583;45.590;-122.498;2024-02-04T06:30:50;7.40;;;4.70;;
50631;SDS011;49583;45.590;-122.498;2024-02-04T06:33:03;6.10;;;4.60;;
50631;SDS011;49583;45.590;-122.498;2024-02-04T06:35:27;7.50;;;4.70;;
50631;SDS011;49583;45.590;-122.498;2024-02-04T06:37:40;8.60;;;5.10;;
50631;SDS011;49583;45.590;-122.498;2024-02-04T06:39:53;6.30;;;4.80;;
50631;SDS011;49583;45.590;-122.498;2024-02-04T06:42:06;7.60;;;5.50;;
50631;SDS011;49583;45.590;-122.498;2024-02-04T06:44:23;8.00;;;5.20;;
50631;SDS011;49583;45.590;-122.498;2024-02-04T06:46:36;7.90;;;5.20;;
50631;SDS011;49583;45.590;-122.498;2024-02-04T06:48:52;7.00;;;4.80;;
50631;SDS011;49583;45.590;-122.498;2024-02-04T06:51:05;8.60;;;5.00;;
50631;SDS011;49583;45.590;-122.498;2024-02-04T06:53:24;8.10;;;5.00;;
50631;SDS011;49583;45.590;-122.498;2024-02-04T06:55:37;6.20;;;3.90;;
50631;SDS011;49583;45.590;-122.498;2024-02-04T06:57:50;8.10;;;4.80;;
50631;SDS011;49583;45.590;-122.498;2024-02-04T07:00:03;9.90;;;4.30;;
50631;SDS011;49583;45.590;-122.498;2024-02-04T07:02:20;9.60;;;4.40;;
50631;SDS011;49583;45.590;-122.498;2024-02-04T07:04:34;5.70;;;4.00;;
50631;SDS011;49583;45.590;-122.498;2024-02-04T07:06:48;9.00;;;4.10;;
50631;SDS011;49583;45.590;-122.498;2024-02-04T07:09:05;6.90;;;4.20;;
50631;SDS011;49583;45.590;-122.498;2024-02-04T07:11:18;7.00;;;3.80;;
50631;SDS011;49583;45.590;-122.498;2024-02-04T07:13:42;6.20;;;4.70;;
50631;SDS011;49583;45.590;-122.498;2024-02-04T07:15:59;5.00;;;3.60;;
50631;SDS011;49583;45.590;-122.498;2024-02-04T07:18:15;7.30;;;4.50;;
50631;SDS011;49583;45.590;-122.498;2024-02-04T07:20:31;6.40;;;4.10;;
50631;SDS011;49583;45.590;-122.498;2024-02-04T07:22:43;5.90;;;4.70;;
50631;SDS011;49583;45.590;-122.498;2024-02-04T07:24:56;12.40;;;5.30;;
50631;SDS011;49583;45.590;-122.498;2024-02-04T07:27:09;5.90;;;4.40;;
50631;SDS011;49583;45.590;-122.498;2024-02-04T07:29:25;3.10;;;2.50;;
50631;SDS011;49583;45.590;-122.498;2024-02-04T07:31:38;8.30;;;4.80;;
50631;SDS011;49583;45.590;-122.498;2024-02-04T07:34:01;7.50;;;4.90;;
50631;SDS011;49583;45.590;-122.498;2024-02-04T07:36:34;8.40;;;4.90;;
50631;SDS011;49583;45.590;-122.498;2024-02-04T07:38:47;7.30;;;5.00;;
50631;SDS011;49583;45.590;-122.498;2024-02-04T07:41:05;7.50;;;4.80;;
50631;SDS011;49583;45.590;-122.498;2024-02-04T07:43:18;12.00;;;5.40;;
50631;SDS011;49583;45.590;-122.498;2024-02-04T07:45:31;6.20;;;4.70;;
50631;SDS011;49583;45.590;-122.498;2024-02-04T07:47:45;10.00;;;5.80;;
50631;SDS011;49583;45.590;-122.498;2024-02-04T07:49:58;8.30;;;6.00;;
50631;SDS011;49583;45.590;-122.498;2024-02-04T07:52:12;10.30;;;5.40;;
50631;SDS011;49583;45.590;-122.498;2024-02-04T07:54:35;10.70;;;5.60;;
50631;SDS011;49583;45.590;-122.498;2024-02-04T07:56:57;11.30;;;6.70;;
50631;SDS011;49583;45.590;-122.498;2024-02-04T07:59:10;8.10;;;5.70;;
50631;SDS011;49583;45.590;-122.498;2024-02-04T08:01:23;9.00;;;5.50;;
50631;SDS011;49583;45.590;-122.498;2024-02-04T08:03:36;9.70;;;6.00;;
50631;SDS011;49583;45.590;-122.498;2024-02-04T08:05:49;9.10;;;5.70;;
50631;SDS011;49583;45.590;-122.498;2024-02-04T08:08:06;13.10;;;7.00;;
50631;SDS011;49583;45.590;-122.498;2024-02-04T08:10:23;10.30;;;6.70;;
50631;SDS011;49583;45.590;-122.498;2024-02-04T08:12:56;8.90;;;5.90;;
50631;SDS011;49583;45.590;-122.498;2024-02-04T08:15:10;9.60;;;6.00;;
50631;SDS011;49583;45.590;-122.498;2024-02-04T08:17:26;8.60;;;6.00;;
50631;SDS011;49583;45.590;-122.498;2024-02-04T08:19:40;13.30;;;6.60;;
50631;SDS011;49583;45.590;-122.498;2024-02-04T08:22:04;10.00;;;6.50;;
50631;SDS011;49583;45.590;-122.498;2024-02-04T08:24:16;13.20;;;6.80;;
50631;SDS011;49583;45.590;-122.498;2024-02-04T08:26:32;9.00;;;6.50;;
50631;SDS011;49583;45.590;-122.498;2024-02-04T08:28:46;7.20;;;6.00;;
50631;SDS011;49583;45.590;-122.498;2024-02-04T08:30:58;8.50;;;6.10;;
50631;SDS011;49583;45.590;-122.498;2024-02-04T08:33:12;11.40;;;6.20;;
50631;SDS011;49583;45.590;-122.498;2024-02-04T08:35:37;16.20;;;5.70;;
50631;SDS011;49583;45.590;-122.498;2024-02-04T08:37:53;9.60;;;6.00;;
50631;SDS011;49583;45.590;-122.498;2024-02-04T08:40:10;8.60;;;6.40;;
50631;SDS011;49583;45.590;-122.498;2024-02-04T08:42:23;12.70;;;6.20;;
50631;SDS011;49583;45.590;-122.498;2024-02-04T08:44:56;9.00;;;5.60;;
50631;SDS011;49583;45.590;-122.498;2024-02-04T08:47:10;9.00;;;6.10;;
50631;SDS011;49583;45.590;-122.498;2024-02-04T08:49:38;10.50;;;6.30;;
50631;SDS011;49583;45.590;-122.498;2024-02-04T08:52:03;9.70;;;5.50;;
50631;SDS011;49583;45.590;-122.498;2024-02-04T08:54:19;7.20;;;5.90;;
50631;SDS011;49583;45.590;-122.498;2024-02-04T08:56:32;12.50;;;7.50;;
50631;SDS011;49583;45.590;-122.498;2024-02-04T08:58:46;17.60;;;6.60;;
50631;SDS011;49583;45.590;-122.498;2024-02-04T09:00:59;10.90;;;7.60;;
50631;SDS011;49583;45.590;-122.498;2024-02-04T09:03:12;14.60;;;6.50;;
50631;SDS011;49583;45.590;-122.498;2024-02-04T09:05:26;12.30;;;6.40;;
50631;SDS011;49583;45.590;-122.498;2024-02-04T09:07:38;8.50;;;5.70;;
50631;SDS011;49583;45.590;-122.498;2024-02-04T09:09:52;12.80;;;6.50;;
50631;SDS011;49583;45.590;-122.498;2024-02-04T09:12:05;11.10;;;6.70;;
50631;SDS011;49583;45.590;-122.498;2024-02-04T09:14:18;8.90;;;5.90;;
50631;SDS011;49583;45.590;-122.498;2024-02-04T09:16:31;6.90;;;5.50;;
50631;SDS011;49583;45.590;-122.498;2024-02-04T09:18:47;11.90;;;6.50;;
50631;SDS011;49583;45.590;-122.498;2024-02-04T09:21:01;9.30;;;6.40;;
50631;SDS011;49583;45.590;-122.498;2024-02-04T09:23:18;7.60;;;5.70;;
50631;SDS011;49583;45.590;-122.498;2024-02-04T09:25:31;9.90;;;5.50;;
50631;SDS011;49583;45.590;-122.498;2024-02-04T09:27:44;7.20;;;6.10;;
50631;SDS011;49583;45.590;-122.498;2024-02-04T09:30:00;7.80;;;5.30;;
50631;SDS011;49583;45.590;-122.498;2024-02-04T09:32:14;10.10;;;6.10;;
50631;SDS011;49583;45.590;-122.498;2024-02-04T09:34:27;10.60;;;6.40;;
50631;SDS011;49583;45.590;-122.498;2024-02-04T09:36:40;8.10;;;5.90;;
50631;SDS011;49583;45.590;-122.498;2024-02-04T09:39:02;8.20;;;5.30;;
50631;SDS011;49583;45.590;-122.498;2024-02-04T09:41:15;10.00;;;5.40;;
50631;SDS011;49583;45.590;-122.498;2024-02-04T09:43:28;9.40;;;6.50;;
50631;SDS011;49583;45.590;-122.498;2024-02-04T09:45:44;17.40;;;6.30;;
50631;SDS011;49583;45.590;-122.498;2024-02-04T09:48:10;8.10;;;6.10;;
50631;SDS011;49583;45.590;-122.498;2024-02-04T09:50:23;8.20;;;5.90;;
50631;SDS011;49583;45.590;-122.498;2024-02-04T09:52:37;12.10;;;7.10;;
50631;SDS011;49583;45.590;-122.498;2024-02-04T09:55:07;9.40;;;6.90;;
50631;SDS011;49583;45.590;-122.498;2024-02-04T09:57:22;10.30;;;5.70;;
50631;SDS011;49583;45.590;-122.498;2024-02-04T09:59:35;10.70;;;5.80;;
50631;SDS011;49583;45.590;-122.498;2024-02-04T10:01:48;7.10;;;4.90;;
50631;SDS011;49583;45.590;-122.498;2024-02-04T10:04:13;5.70;;;5.10;;
50631;SDS011;49583;45.590;-122.498;2024-02-04T10:06:26;8.00;;;5.40;;
50631;SDS011;49583;45.590;-122.498;2024-02-04T10:08:40;10.40;;;5.40;;
50631;SDS011;49583;45.590;-122.498;2024-02-04T10:10:54;10.70;;;5.60;;
50631;SDS011;49583;45.590;-122.498;2024-02-04T10:13:08;8.10;;;4.60;;
50631;SDS011;49583;45.590;-122.498;2024-02-04T10:15:21;7.00;;;4.80;;
50631;SDS011;49583;45.590;-122.498;2024-02-04T10:17:34;6.30;;;5.40;;
50631;SDS011;49583;45.590;-122.498;2024-02-04T10:20:00;7.50;;;4.80;;
50631;SDS011;49583;45.590;-122.498;2024-02-04T10:22:16;7.50;;;4.60;;
50631;SDS011;49583;45.590;-122.498;2024-02-04T10:24:30;6.20;;;4.90;;
50631;SDS011;49583;45.590;-122.498;2024-02-04T10:26:43;6.10;;;4.40;;
50631;SDS011;49583;45.590;-122.498;2024-02-04T10:29:16;8.00;;;4.30;;
50631;SDS011;49583;45.590;-122.498;2024-02-04T10:31:30;7.30;;;4.70;;
50631;SDS011;49583;45.590;-122.498;2024-02-04T10:33:43;9.00;;;5.40;;
50631;SDS011;49583;45.590;-122.498;2024-02-04T10:36:16;6.50;;;4.30;;
50631;SDS011;49583;45.590;-122.498;2024-02-04T10:38:38;7.60;;;4.70;;
50631;SDS011;49583;45.590;-122.498;2024-02-04T10:40:52;10.70;;;5.70;;
50631;SDS011;49583;45.590;-122.498;2024-02-04T10:43:06;11.00;;;5.60;;
50631;SDS011;49583;45.590;-122.498;2024-02-04T10:45:23;10.20;;;6.60;;
50631;SDS011;49583;45.590;-122.498;2024-02-04T10:47:40;9.20;;;7.20;;
50631;SDS011;49583;45.590;-122.498;2024-02-04T10:49:56;8.60;;;6.40;;
50631;SDS011;49583;45.590;-122.498;2024-02-04T10:52:12;11.50;;;6.90;;
50631;SDS011;49583;45.590;-122.498;2024-02-04T10:54:27;10.00;;;6.10;;
50631;SDS011;49583;45.590;-122.498;2024-02-04T10:56:43;9.40;;;6.00;;
50631;SDS011;49583;45.590;-122.498;2024-02-04T10:58:57;7.20;;;5.20;;
50631;SDS011;49583;45.590;-122.498;2024-02-04T11:01:22;7.90;;;5.60;;
50631;SDS011;49583;45.590;-122.498;2024-02-04T11:03:36;8.90;;;5.50;;
50631;SDS011;49583;45.590;-122.498;2024-02-04T11:05:50;6.80;;;5.20;;
50631;SDS011;49583;45.590;-122.498;2024-02-04T11:08:04;8.20;;;5.70;;
50631;SDS011;49583;45.590;-122.498;2024-02-04T11:10:28;8.50;;;5.20;;
50631;SDS011;49583;45.590;-122.498;2024-02-04T11:12:42;6.30;;;4.70;;
50631;SDS011;49583;45.590;-122.498;2024-02-04T11:14:56;6.60;;;4.90;;
50631;SDS011;49583;45.590;-122.498;2024-02-04T11:17:40;9.10;;;5.70;;
50631;SDS011;49583;45.590;-122.498;2024-02-04T11:20:23;7.40;;;5.40;;
50631;SDS011;49583;45.590;-122.498;2024-02-04T11:23:05;9.00;;;4.80;;
50631;SDS011;49583;45.590;-122.498;2024-02-04T11:25:47;8.10;;;5.00;;
50631;SDS011;49583;45.590;-122.498;2024-02-04T11:28:05;7.40;;;5.20;;
50631;SDS011;49583;45.590;-122.498;2024-02-04T11:30:21;7.80;;;5.40;;
50631;SDS011;49583;45.590;-122.498;2024-02-04T11:32:47;10.50;;;5.60;;
50631;SDS011;49583;45.590;-122.498;2024-02-04T11:35:00;12.40;;;6.60;;
50631;SDS011;49583;45.590;-122.498;2024-02-04T11:37:26;6.80;;;4.70;;
50631;SDS011;49583;45.590;-122.498;2024-02-04T11:39:47;8.40;;;5.90;;
50631;SDS011;49583;45.590;-122.498;2024-02-04T11:42:13;7.40;;;5.10;;
50631;SDS011;49583;45.590;-122.498;2024-02-04T11:44:40;8.80;;;5.60;;
50631;SDS011;49583;45.590;-122.498;2024-02-04T11:47:11;9.90;;;6.10;;
50631;SDS011;49583;45.590;-122.498;2024-02-04T11:49:33;9.20;;;5.20;;
50631;SDS011;49583;45.590;-122.498;2024-02-04T11:51:50;6.30;;;4.60;;
50631;SDS011;49583;45.590;-122.498;2024-02-04T11:54:07;8.50;;;5.00;;
50631;SDS011;49583;45.590;-122.498;2024-02-04T11:56:41;6.60;;;5.00;;
50631;SDS011;49583;45.590;-122.498;2024-02-04T11:59:01;7.30;;;5.40;;
50631;SDS011;49583;45.590;-122.498;2024-02-04T12:01:24;10.10;;;5.70;;
50631;SDS011;49583;45.590;-122.498;2024-02-04T12:03:38;13.10;;;6.70;;
50631;SDS011;49583;45.590;-122.498;2024-02-04T12:06:02;7.50;;;5.70;;
50631;SDS011;49583;45.590;-122.498;2024-02-04T12:08:16;6.90;;;5.40;;
50631;SDS011;49583;45.590;-122.498;2024-02-04T12:10:30;8.10;;;5.60;;
50631;SDS011;49583;45.590;-122.498;2024-02-04T12:12:56;7.90;;;5.20;;
50631;SDS011;49583;45.590;-122.498;2024-02-04T12:15:12;7.70;;;5.20;;
50631;SDS011;49583;45.590;-122.498;2024-02-04T12:17:36;10.40;;;5.20;;
50631;SDS011;49583;45.590;-122.498;2024-02-04T12:19:49;10.20;;;6.00;;
50631;SDS011;49583;45.590;-122.498;2024-02-04T12:22:22;9.70;;;5.30;;
50631;SDS011;49583;45.590;-122.498;2024-02-04T12:24:35;9.00;;;5.80;;
50631;SDS011;49583;45.590;-122.498;2024-02-04T12:26:52;8.20;;;5.70;;
50631;SDS011;49583;45.590;-122.498;2024-02-04T12:29:16;10.30;;;5.90;;
50631;SDS011;49583;45.590;-122.498;2024-02-04T12:31:40;11.20;;;5.60;;
50631;SDS011;49583;45.590;-122.498;2024-02-04T12:33:57;10.00;;;5.40;;
50631;SDS011;49583;45.590;-122.498;2024-02-04T12:36:11;8.30;;;5.90;;
50631;SDS011;49583;45.590;-122.498;2024-02-04T12:38:27;7.60;;;5.40;;
50631;SDS011;49583;45.590;-122.498;2024-02-04T12:40:41;9.10;;;5.30;;
50631;SDS011;49583;45.590;-122.498;2024-02-04T12:42:57;11.00;;;4.90;;
50631;SDS011;49583;45.590;-122.498;2024-02-04T12:45:13;7.30;;;5.00;;
50631;SDS011;49583;45.590;-122.498;2024-02-04T12:47:35;6.60;;;4.60;;
50631;SDS011;49583;45.590;-122.498;2024-02-04T12:50:08;6.00;;;4.80;;
50631;SDS011;49583;45.590;-122.498;2024-02-04T12:52:34;8.00;;;5.30;;
50631;SDS011;49583;45.590;-122.498;2024-02-04T12:54:47;8.10;;;5.30;;
50631;SDS011;49583;45.590;-122.498;2024-02-04T12:57:03;9.40;;;5.10;;
50631;SDS011;49583;45.590;-122.498;2024-02-04T12:59:29;10.90;;;4.80;;
50631;SDS011;49583;45.590;-122.498;2024-02-04T13:01:43;7.70;;;4.70;;
50631;SDS011;49583;45.590;-122.498;2024-02-04T13:04:01;8.50;;;5.50;;
50631;SDS011;49583;45.590;-122.498;2024-02-04T13:06:16;10.60;;;4.90;;
50631;SDS011;49583;45.590;-122.498;2024-02-04T13:08:51;8.80;;;4.80;;